sensor_id;sensor_type;location;lat;lon;timestamp;temperature;humidity
3466;DHT22;1747;48.884;9.160;2023-07-08T00:01:56;21.40;76.90
3466;DHT22;1747;48.884;9.160;2023-07-08T00:04:23;21.40;76.00
3466;DHT22;1747;48.884;9.160;2023-07-08T00:06:50;21.30;76.60
3466;DHT22;1747;48.884;9.160;2023-07-08T00:09:18;21.20;77.60
3466;DHT22;1747;48.884;9.160;2023-07-08T00:11:45;21.10;77.80
3466;DHT22;1747;48.884;9.160;2023-07-08T00:14:11;21.00;78.90
3466;DHT22;1747;48.884;9.160;2023-07-08T00:16:38;20.90;78.10
3466;DHT22;1747;48.884;9.160;2023-07-08T00:19:08;20.80;78.30
3466;DHT22;1747;48.884;9.160;2023-07-08T00:21:35;20.70;79.40
3466;DHT22;1747;48.884;9.160;2023-07-08T00:24:04;20.70;79.60
3466;DHT22;1747;48.884;9.160;2023-07-08T00:26:32;20.60;80.20
3466;DHT22;1747;48.884;9.160;2023-07-08T00:28:59;20.60;80.60
3466;DHT22;1747;48.884;9.160;2023-07-08T00:31:26;20.50;80.80
3466;DHT22;1747;48.884;9.160;2023-07-08T00:33:54;20.50;80.70
3466;DHT22;1747;48.884;9.160;2023-07-08T00:36:22;20.50;79.80
3466;DHT22;1747;48.884;9.160;2023-07-08T00:38:49;20.50;80.50
3466;DHT22;1747;48.884;9.160;2023-07-08T00:41:20;20.50;80.20
3466;DHT22;1747;48.884;9.160;2023-07-08T00:43:51;20.50;80.80
3466;DHT22;1747;48.884;9.160;2023-07-08T00:46:29;20.40;81.60
3466;DHT22;1747;48.884;9.160;2023-07-08T00:49:03;20.40;81.80
3466;DHT22;1747;48.884;9.160;2023-07-08T00:51:36;20.30;81.80
3466;DHT22;1747;48.884;9.160;2023-07-08T00:54:03;20.20;81.00
3466;DHT22;1747;48.884;9.160;2023-07-08T00:56:33;20.10;82.10
3466;DHT22;1747;48.884;9.160;2023-07-08T00:59:04;20.10;83.80
3466;DHT22;1747;48.884;9.160;2023-07-08T01:01:35;20.10;84.60
3466;DHT22;1747;48.884;9.160;2023-07-08T01:04:05;19.90;83.90
3466;DHT22;1747;48.884;9.160;2023-07-08T01:06:34;19.90;84.30
3466;DHT22;1747;48.884;9.160;2023-07-08T01:09:07;19.90;84.10
3466;DHT22;1747;48.884;9.160;2023-07-08T01:11:36;19.80;84.80
3466;DHT22;1747;48.884;9.160;2023-07-08T01:14:06;19.70;86.10
3466;DHT22;1747;48.884;9.160;2023-07-08T01:16:34;19.60;85.60
3466;DHT22;1747;48.884;9.160;2023-07-08T01:19:01;19.60;86.20
3466;DHT22;1747;48.884;9.160;2023-07-08T01:21:32;19.50;88.20
3466;DHT22;1747;48.884;9.160;2023-07-08T01:24:02;19.40;89.10
3466;DHT22;1747;48.884;9.160;2023-07-08T01:26:31;19.30;89.30
3466;DHT22;1747;48.884;9.160;2023-07-08T01:28:59;19.20;89.90
3466;DHT22;1747;48.884;9.160;2023-07-08T01:31:26;19.10;89.80
3466;DHT22;1747;48.884;9.160;2023-07-08T01:33:53;19.10;90.00
3466;DHT22;1747;48.884;9.160;2023-07-08T01:36:20;19.10;90.10
3466;DHT22;1747;48.884;9.160;2023-07-08T01:38:48;19.00;90.60
3466;DHT22;1747;48.884;9.160;2023-07-08T01:41:16;19.00;90.50
3466;DHT22;1747;48.884;9.160;2023-07-08T01:43:44;19.00;91.30
3466;DHT22;1747;48.884;9.160;2023-07-08T01:46:15;18.90;91.40
3466;DHT22;1747;48.884;9.160;2023-07-08T01:48:52;18.90;91.00
3466;DHT22;1747;48.884;9.160;2023-07-08T01:51:19;18.90;91.10
3466;DHT22;1747;48.884;9.160;2023-07-08T01:53:46;18.80;90.90
3466;DHT22;1747;48.884;9.160;2023-07-08T01:56:14;18.90;91.20
3466;DHT22;1747;48.884;9.160;2023-07-08T01:58:42;18.80;91.80
3466;DHT22;1747;48.884;9.160;2023-07-08T02:01:09;18.80;91.70
3466;DHT22;1747;48.884;9.160;2023-07-08T02:03:36;18.90;91.60
3466;DHT22;1747;48.884;9.160;2023-07-08T02:06:03;18.90;91.40
3466;DHT22;1747;48.884;9.160;2023-07-08T02:08:30;18.90;91.10
3466;DHT22;1747;48.884;9.160;2023-07-08T02:10:58;19.00;91.10
3466;DHT22;1747;48.884;9.160;2023-07-08T02:13:25;19.00;91.40
3466;DHT22;1747;48.884;9.160;2023-07-08T02:15:53;19.10;91.60
3466;DHT22;1747;48.884;9.160;2023-07-08T02:18:20;19.00;91.80
3466;DHT22;1747;48.884;9.160;2023-07-08T02:20:49;19.00;92.00
3466;DHT22;1747;48.884;9.160;2023-07-08T02:23:15;19.00;92.20
3466;DHT22;1747;48.884;9.160;2023-07-08T02:25:50;18.90;92.20
3466;DHT22;1747;48.884;9.160;2023-07-08T02:28:17;18.80;92.20
3466;DHT22;1747;48.884;9.160;2023-07-08T02:30:43;18.80;91.90
3466;DHT22;1747;48.884;9.160;2023-07-08T02:33:13;18.80;92.20
3466;DHT22;1747;48.884;9.160;2023-07-08T02:35:40;18.70;92.50
3466;DHT22;1747;48.884;9.160;2023-07-08T02:38:07;18.70;93.10
3466;DHT22;1747;48.884;9.160;2023-07-08T02:40:34;18.60;92.90
3466;DHT22;1747;48.884;9.160;2023-07-08T02:43:00;18.50;92.90
3466;DHT22;1747;48.884;9.160;2023-07-08T02:45:27;18.60;93.40
3466;DHT22;1747;48.884;9.160;2023-07-08T02:47:54;18.60;93.60
3466;DHT22;1747;48.884;9.160;2023-07-08T02:50:22;18.60;94.10
3466;DHT22;1747;48.884;9.160;2023-07-08T02:52:50;18.60;94.00
3466;DHT22;1747;48.884;9.160;2023-07-08T02:55:17;18.50;94.40
3466;DHT22;1747;48.884;9.160;2023-07-08T02:57:43;18.40;94.80
3466;DHT22;1747;48.884;9.160;2023-07-08T03:00:11;18.40;94.20
3466;DHT22;1747;48.884;9.160;2023-07-08T03:02:38;18.40;93.80
3466;DHT22;1747;48.884;9.160;2023-07-08T03:05:06;18.50;93.50
3466;DHT22;1747;48.884;9.160;2023-07-08T03:07:34;18.50;94.00
3466;DHT22;1747;48.884;9.160;2023-07-08T03:10:01;18.50;94.40
3466;DHT22;1747;48.884;9.160;2023-07-08T03:12:29;18.60;94.50
3466;DHT22;1747;48.884;9.160;2023-07-08T03:14:55;18.60;94.90
3466;DHT22;1747;48.884;9.160;2023-07-08T03:17:22;18.50;95.20
3466;DHT22;1747;48.884;9.160;2023-07-08T03:19:50;18.50;94.20
3466;DHT22;1747;48.884;9.160;2023-07-08T03:22:17;18.60;94.00
3466;DHT22;1747;48.884;9.160;2023-07-08T03:24:45;18.60;94.40
3466;DHT22;1747;48.884;9.160;2023-07-08T03:27:13;18.60;94.60
3466;DHT22;1747;48.884;9.160;2023-07-08T03:29:40;18.70;94.50
3466;DHT22;1747;48.884;9.160;2023-07-08T03:32:09;18.70;94.90
3466;DHT22;1747;48.884;9.160;2023-07-08T03:34:36;18.60;95.20
3466;DHT22;1747;48.884;9.160;2023-07-08T03:37:04;18.60;95.00
3466;DHT22;1747;48.884;9.160;2023-07-08T03:39:31;18.60;93.60
3466;DHT22;1747;48.884;9.160;2023-07-08T03:41:59;18.60;93.90
3466;DHT22;1747;48.884;9.160;2023-07-08T03:44:26;18.60;94.40
3466;DHT22;1747;48.884;9.160;2023-07-08T03:46:53;18.60;95.70
3466;DHT22;1747;48.884;9.160;2023-07-08T03:49:22;18.60;94.90
3466;DHT22;1747;48.884;9.160;2023-07-08T03:51:50;18.50;95.00
3466;DHT22;1747;48.884;9.160;2023-07-08T03:54:21;18.40;95.50
3466;DHT22;1747;48.884;9.160;2023-07-08T03:56:48;18.40;95.60
3466;DHT22;1747;48.884;9.160;2023-07-08T03:59:17;18.40;95.50
3466;DHT22;1747;48.884;9.160;2023-07-08T04:01:43;18.50;94.60
3466;DHT22;1747;48.884;9.160;2023-07-08T04:04:13;18.50;94.50
3466;DHT22;1747;48.884;9.160;2023-07-08T04:06:40;18.50;95.20
3466;DHT22;1747;48.884;9.160;2023-07-08T04:09:07;18.50;95.50
3466;DHT22;1747;48.884;9.160;2023-07-08T04:11:34;18.50;95.70
3466;DHT22;1747;48.884;9.160;2023-07-08T04:14:01;18.50;95.80
3466;DHT22;1747;48.884;9.160;2023-07-08T04:16:37;18.40;96.60
3466;DHT22;1747;48.884;9.160;2023-07-08T04:19:12;18.50;96.90
3466;DHT22;1747;48.884;9.160;2023-07-08T04:21:40;18.40;98.30
3466;DHT22;1747;48.884;9.160;2023-07-08T04:24:09;18.40;98.80
3466;DHT22;1747;48.884;9.160;2023-07-08T04:26:36;18.30;99.00
3466;DHT22;1747;48.884;9.160;2023-07-08T04:29:06;18.30;99.90
3466;DHT22;1747;48.884;9.160;2023-07-08T04:31:34;18.10;99.90
3466;DHT22;1747;48.884;9.160;2023-07-08T04:34:01;18.10;99.90
3466;DHT22;1747;48.884;9.160;2023-07-08T04:36:27;18.10;99.90
3466;DHT22;1747;48.884;9.160;2023-07-08T04:38:55;18.10;99.90
3466;DHT22;1747;48.884;9.160;2023-07-08T04:41:23;18.20;99.90
3466;DHT22;1747;48.884;9.160;2023-07-08T04:43:51;18.30;99.90
3466;DHT22;1747;48.884;9.160;2023-07-08T04:46:24;18.40;99.90
3466;DHT22;1747;48.884;9.160;2023-07-08T04:48:54;18.60;99.90
3466;DHT22;1747;48.884;9.160;2023-07-08T04:51:21;18.70;99.90
3466;DHT22;1747;48.884;9.160;2023-07-08T04:53:49;18.90;99.90
3466;DHT22;1747;48.884;9.160;2023-07-08T04:56:16;19.10;99.90
3466;DHT22;1747;48.884;9.160;2023-07-08T04:58:43;19.20;99.90
3466;DHT22;1747;48.884;9.160;2023-07-08T05:01:10;19.30;99.90
3466;DHT22;1747;48.884;9.160;2023-07-08T05:03:37;19.40;99.90
3466;DHT22;1747;48.884;9.160;2023-07-08T05:06:05;19.50;99.90
3466;DHT22;1747;48.884;9.160;2023-07-08T05:08:33;19.70;99.90
3466;DHT22;1747;48.884;9.160;2023-07-08T05:11:00;19.80;99.90
3466;DHT22;1747;48.884;9.160;2023-07-08T05:13:27;19.90;99.90
3466;DHT22;1747;48.884;9.160;2023-07-08T05:15:54;19.90;98.70
3466;DHT22;1747;48.884;9.160;2023-07-08T05:18:22;20.00;98.80
3466;DHT22;1747;48.884;9.160;2023-07-08T05:20:52;20.00;99.00
3466;DHT22;1747;48.884;9.160;2023-07-08T05:23:21;20.10;99.80
3466;DHT22;1747;48.884;9.160;2023-07-08T05:25:48;20.20;97.80
3466;DHT22;1747;48.884;9.160;2023-07-08T05:28:15;20.20;97.80
3466;DHT22;1747;48.884;9.160;2023-07-08T05:30:42;20.30;97.70
3466;DHT22;1747;48.884;9.160;2023-07-08T05:33:11;20.30;96.90
3466;DHT22;1747;48.884;9.160;2023-07-08T05:35:38;20.30;96.70
3466;DHT22;1747;48.884;9.160;2023-07-08T05:38:05;20.40;96.70
3466;DHT22;1747;48.884;9.160;2023-07-08T05:40:33;20.50;96.30
3466;DHT22;1747;48.884;9.160;2023-07-08T05:43:00;20.60;96.50
3466;DHT22;1747;48.884;9.160;2023-07-08T05:45:27;20.70;96.70
3466;DHT22;1747;48.884;9.160;2023-07-08T05:47:53;20.80;97.70
3466;DHT22;1747;48.884;9.160;2023-07-08T05:50:23;20.90;97.90
3466;DHT22;1747;48.884;9.160;2023-07-08T05:52:50;21.00;97.90
3466;DHT22;1747;48.884;9.160;2023-07-08T05:55:17;21.10;97.50
3466;DHT22;1747;48.884;9.160;2023-07-08T05:57:45;21.20;97.30
3466;DHT22;1747;48.884;9.160;2023-07-08T06:00:13;21.40;97.00
3466;DHT22;1747;48.884;9.160;2023-07-08T06:02:40;21.40;97.00
3466;DHT22;1747;48.884;9.160;2023-07-08T06:05:07;21.50;97.20
3466;DHT22;1747;48.884;9.160;2023-07-08T06:07:34;21.50;97.70
3466;DHT22;1747;48.884;9.160;2023-07-08T06:10:01;21.50;98.20
3466;DHT22;1747;48.884;9.160;2023-07-08T06:12:28;21.60;98.40
3466;DHT22;1747;48.884;9.160;2023-07-08T06:14:57;21.70;98.20
3466;DHT22;1747;48.884;9.160;2023-07-08T06:17:23;21.80;98.20
3466;DHT22;1747;48.884;9.160;2023-07-08T06:19:50;22.00;97.60
3466;DHT22;1747;48.884;9.160;2023-07-08T06:22:17;22.10;97.40
3466;DHT22;1747;48.884;9.160;2023-07-08T06:24:44;22.30;97.10
3466;DHT22;1747;48.884;9.160;2023-07-08T06:27:12;22.40;96.80
3466;DHT22;1747;48.884;9.160;2023-07-08T06:29:39;22.50;96.70
3466;DHT22;1747;48.884;9.160;2023-07-08T06:32:08;22.70;96.40
3466;DHT22;1747;48.884;9.160;2023-07-08T06:34:35;22.90;95.70
3466;DHT22;1747;48.884;9.160;2023-07-08T06:37:07;23.10;95.30
3466;DHT22;1747;48.884;9.160;2023-07-08T06:39:34;23.20;95.20
3466;DHT22;1747;48.884;9.160;2023-07-08T06:42:01;23.50;94.00
3466;DHT22;1747;48.884;9.160;2023-07-08T06:44:28;23.80;93.70
3466;DHT22;1747;48.884;9.160;2023-07-08T06:46:55;24.10;92.40
3466;DHT22;1747;48.884;9.160;2023-07-08T06:49:23;24.20;92.50
3466;DHT22;1747;48.884;9.160;2023-07-08T06:51:50;24.50;91.80
3466;DHT22;1747;48.884;9.160;2023-07-08T06:54:16;24.80;91.30
3466;DHT22;1747;48.884;9.160;2023-07-08T06:56:43;25.10;90.50
3466;DHT22;1747;48.884;9.160;2023-07-08T06:59:10;25.30;90.00
3466;DHT22;1747;48.884;9.160;2023-07-08T07:01:37;25.60;89.20
3466;DHT22;1747;48.884;9.160;2023-07-08T07:04:05;25.80;88.30
3466;DHT22;1747;48.884;9.160;2023-07-08T07:06:33;25.90;88.80
3466;DHT22;1747;48.884;9.160;2023-07-08T07:09:00;26.10;87.40
3466;DHT22;1747;48.884;9.160;2023-07-08T07:11:27;26.20;86.20
3466;DHT22;1747;48.884;9.160;2023-07-08T07:13:54;26.20;86.80
3466;DHT22;1747;48.884;9.160;2023-07-08T07:16:21;26.20;86.60
3466;DHT22;1747;48.884;9.160;2023-07-08T07:18:47;26.10;86.00
3466;DHT22;1747;48.884;9.160;2023-07-08T07:21:15;26.20;85.90
3466;DHT22;1747;48.884;9.160;2023-07-08T07:23:43;26.20;85.30
3466;DHT22;1747;48.884;9.160;2023-07-08T07:26:10;26.20;85.90
3466;DHT22;1747;48.884;9.160;2023-07-08T07:28:37;26.20;85.60
3466;DHT22;1747;48.884;9.160;2023-07-08T07:31:04;26.30;85.30
3466;DHT22;1747;48.884;9.160;2023-07-08T07:33:32;26.40;84.00
3466;DHT22;1747;48.884;9.160;2023-07-08T07:36:04;26.30;84.10
3466;DHT22;1747;48.884;9.160;2023-07-08T07:38:33;26.30;84.30
3466;DHT22;1747;48.884;9.160;2023-07-08T07:41:02;26.30;83.80
3466;DHT22;1747;48.884;9.160;2023-07-08T07:43:32;26.30;82.70
3466;DHT22;1747;48.884;9.160;2023-07-08T07:45:59;26.50;82.90
3466;DHT22;1747;48.884;9.160;2023-07-08T07:48:26;26.60;82.60
3466;DHT22;1747;48.884;9.160;2023-07-08T07:50:57;26.60;81.90
3466;DHT22;1747;48.884;9.160;2023-07-08T07:53:26;26.70;81.40
3466;DHT22;1747;48.884;9.160;2023-07-08T07:55:58;26.80;80.80
3466;DHT22;1747;48.884;9.160;2023-07-08T07:58:28;26.90;80.30
3466;DHT22;1747;48.884;9.160;2023-07-08T08:00:55;27.00;79.70
3466;DHT22;1747;48.884;9.160;2023-07-08T08:03:22;27.00;79.80
3466;DHT22;1747;48.884;9.160;2023-07-08T08:05:49;27.10;79.70
3466;DHT22;1747;48.884;9.160;2023-07-08T08:08:17;27.20;79.40
3466;DHT22;1747;48.884;9.160;2023-07-08T08:10:44;27.40;77.00
3466;DHT22;1747;48.884;9.160;2023-07-08T08:13:12;27.50;76.80
3466;DHT22;1747;48.884;9.160;2023-07-08T08:15:40;27.60;76.80
3466;DHT22;1747;48.884;9.160;2023-07-08T08:18:07;27.60;76.10
3466;DHT22;1747;48.884;9.160;2023-07-08T08:20:34;27.60;76.00
3466;DHT22;1747;48.884;9.160;2023-07-08T08:23:01;27.80;76.40
3466;DHT22;1747;48.884;9.160;2023-07-08T08:25:28;27.80;76.40
3466;DHT22;1747;48.884;9.160;2023-07-08T08:27:54;27.90;75.80
3466;DHT22;1747;48.884;9.160;2023-07-08T08:30:22;28.00;75.70
3466;DHT22;1747;48.884;9.160;2023-07-08T08:32:50;28.10;77.60
3466;DHT22;1747;48.884;9.160;2023-07-08T08:35:17;28.10;76.60
3466;DHT22;1747;48.884;9.160;2023-07-08T08:37:44;28.30;76.20
3466;DHT22;1747;48.884;9.160;2023-07-08T08:40:13;28.30;76.80
3466;DHT22;1747;48.884;9.160;2023-07-08T08:42:44;28.40;77.10
3466;DHT22;1747;48.884;9.160;2023-07-08T08:45:16;28.40;76.60
3466;DHT22;1747;48.884;9.160;2023-07-08T08:47:48;28.50;76.80
3466;DHT22;1747;48.884;9.160;2023-07-08T08:50:28;28.50;75.40
3466;DHT22;1747;48.884;9.160;2023-07-08T08:52:56;28.60;76.50
3466;DHT22;1747;48.884;9.160;2023-07-08T08:55:24;28.80;74.80
3466;DHT22;1747;48.884;9.160;2023-07-08T08:57:57;28.90;74.00
3466;DHT22;1747;48.884;9.160;2023-07-08T09:00:30;29.00;73.60
3466;DHT22;1747;48.884;9.160;2023-07-08T09:03:01;29.10;75.60
3466;DHT22;1747;48.884;9.160;2023-07-08T09:05:31;29.10;74.30
3466;DHT22;1747;48.884;9.160;2023-07-08T09:08:04;29.10;73.30
3466;DHT22;1747;48.884;9.160;2023-07-08T09:10:40;29.30;73.50
3466;DHT22;1747;48.884;9.160;2023-07-08T09:13:13;29.40;75.00
3466;DHT22;1747;48.884;9.160;2023-07-08T09:15:42;29.50;72.40
3466;DHT22;1747;48.884;9.160;2023-07-08T09:18:16;29.70;73.00
3466;DHT22;1747;48.884;9.160;2023-07-08T09:20:48;29.80;71.20
3466;DHT22;1747;48.884;9.160;2023-07-08T09:23:19;29.90;71.40
3466;DHT22;1747;48.884;9.160;2023-07-08T09:25:51;30.00;73.20
3466;DHT22;1747;48.884;9.160;2023-07-08T09:28:19;30.10;74.50
3466;DHT22;1747;48.884;9.160;2023-07-08T09:30:48;30.30;72.20
3466;DHT22;1747;48.884;9.160;2023-07-08T09:33:15;30.50;72.40
3466;DHT22;1747;48.884;9.160;2023-07-08T09:35:46;30.70;70.00
3466;DHT22;1747;48.884;9.160;2023-07-08T09:38:16;30.80;69.80
3466;DHT22;1747;48.884;9.160;2023-07-08T09:40:50;30.90;69.10
3466;DHT22;1747;48.884;9.160;2023-07-08T09:43:25;30.90;69.00
3466;DHT22;1747;48.884;9.160;2023-07-08T09:45:57;30.90;68.50
3466;DHT22;1747;48.884;9.160;2023-07-08T09:48:27;30.90;69.20
3466;DHT22;1747;48.884;9.160;2023-07-08T09:50:57;31.10;69.60
3466;DHT22;1747;48.884;9.160;2023-07-08T09:53:25;31.10;68.40
3466;DHT22;1747;48.884;9.160;2023-07-08T09:55:54;31.20;67.60
3466;DHT22;1747;48.884;9.160;2023-07-08T09:58:25;31.30;67.60
3466;DHT22;1747;48.884;9.160;2023-07-08T10:00:55;31.20;66.50
3466;DHT22;1747;48.884;9.160;2023-07-08T10:03:25;31.10;67.30
3466;DHT22;1747;48.884;9.160;2023-07-08T10:06:02;31.20;65.50
3466;DHT22;1747;48.884;9.160;2023-07-08T10:08:37;31.20;66.20
3466;DHT22;1747;48.884;9.160;2023-07-08T10:11:16;31.30;65.90
3466;DHT22;1747;48.884;9.160;2023-07-08T10:13:49;31.30;64.60
3466;DHT22;1747;48.884;9.160;2023-07-08T10:16:27;31.40;65.40
3466;DHT22;1747;48.884;9.160;2023-07-08T10:18:54;31.50;65.80
3466;DHT22;1747;48.884;9.160;2023-07-08T10:21:31;31.40;63.90
3466;DHT22;1747;48.884;9.160;2023-07-08T10:24:16;31.40;64.80
3466;DHT22;1747;48.884;9.160;2023-07-08T10:26:51;31.30;64.10
3466;DHT22;1747;48.884;9.160;2023-07-08T10:29:27;31.30;64.90
3466;DHT22;1747;48.884;9.160;2023-07-08T10:32:05;31.40;64.70
3466;DHT22;1747;48.884;9.160;2023-07-08T10:34:42;31.50;64.30
3466;DHT22;1747;48.884;9.160;2023-07-08T10:37:22;31.50;64.60
3466;DHT22;1747;48.884;9.160;2023-07-08T10:40:12;31.50;65.70
3466;DHT22;1747;48.884;9.160;2023-07-08T10:42:53;31.70;67.60
3466;DHT22;1747;48.884;9.160;2023-07-08T10:45:28;31.80;66.60
3466;DHT22;1747;48.884;9.160;2023-07-08T10:48:07;32.10;66.90
3466;DHT22;1747;48.884;9.160;2023-07-08T10:50:57;32.10;65.70
3466;DHT22;1747;48.884;9.160;2023-07-08T10:53:37;32.30;68.20
3466;DHT22;1747;48.884;9.160;2023-07-08T10:56:13;32.40;68.30
3466;DHT22;1747;48.884;9.160;2023-07-08T10:58:59;32.30;66.70
3466;DHT22;1747;48.884;9.160;2023-07-08T11:01:36;31.90;67.40
3466;DHT22;1747;48.884;9.160;2023-07-08T11:04:22;31.70;69.10
3466;DHT22;1747;48.884;9.160;2023-07-08T11:06:54;31.70;68.60
3466;DHT22;1747;48.884;9.160;2023-07-08T11:09:30;31.50;68.50
3466;DHT22;1747;48.884;9.160;2023-07-08T11:12:03;31.50;69.60
3466;DHT22;1747;48.884;9.160;2023-07-08T11:14:42;31.60;68.20
3466;DHT22;1747;48.884;9.160;2023-07-08T11:17:12;31.70;68.10
3466;DHT22;1747;48.884;9.160;2023-07-08T11:19:47;31.80;69.30
3466;DHT22;1747;48.884;9.160;2023-07-08T11:22:15;31.90;69.00
3466;DHT22;1747;48.884;9.160;2023-07-08T11:24:46;32.00;65.90
3466;DHT22;1747;48.884;9.160;2023-07-08T11:27:16;31.90;67.70
3466;DHT22;1747;48.884;9.160;2023-07-08T11:29:51;32.20;67.50
3466;DHT22;1747;48.884;9.160;2023-07-08T11:32:21;32.30;66.90
3466;DHT22;1747;48.884;9.160;2023-07-08T11:34:50;32.20;65.10
3466;DHT22;1747;48.884;9.160;2023-07-08T11:37:18;32.20;65.00
3466;DHT22;1747;48.884;9.160;2023-07-08T11:39:54;32.10;64.70
3466;DHT22;1747;48.884;9.160;2023-07-08T11:42:23;32.00;65.10
3466;DHT22;1747;48.884;9.160;2023-07-08T11:44:54;32.10;66.00
3466;DHT22;1747;48.884;9.160;2023-07-08T11:47:25;32.20;65.50
3466;DHT22;1747;48.884;9.160;2023-07-08T11:49:53;32.00;65.30
3466;DHT22;1747;48.884;9.160;2023-07-08T11:52:22;31.80;66.00
3466;DHT22;1747;48.884;9.160;2023-07-08T11:54:59;31.80;66.10
3466;DHT22;1747;48.884;9.160;2023-07-08T11:57:30;31.80;64.40
3466;DHT22;1747;48.884;9.160;2023-07-08T12:00:17;32.10;66.30
3466;DHT22;1747;48.884;9.160;2023-07-08T12:02:50;32.30;65.40
3466;DHT22;1747;48.884;9.160;2023-07-08T12:05:29;32.80;66.10
3466;DHT22;1747;48.884;9.160;2023-07-08T12:07:57;33.40;63.90
3466;DHT22;1747;48.884;9.160;2023-07-08T12:10:32;34.20;64.20
3466;DHT22;1747;48.884;9.160;2023-07-08T12:12:59;34.70;62.50
3466;DHT22;1747;48.884;9.160;2023-07-08T12:15:28;35.10;61.40
3466;DHT22;1747;48.884;9.160;2023-07-08T12:17:56;35.20;60.80
3466;DHT22;1747;48.884;9.160;2023-07-08T12:20:27;35.60;60.40
3466;DHT22;1747;48.884;9.160;2023-07-08T12:22:55;35.90;60.00
3466;DHT22;1747;48.884;9.160;2023-07-08T12:25:23;35.90;61.00
3466;DHT22;1747;48.884;9.160;2023-07-08T12:27:52;35.70;59.70
3466;DHT22;1747;48.884;9.160;2023-07-08T12:30:19;36.20;60.00
3466;DHT22;1747;48.884;9.160;2023-07-08T12:32:46;36.90;59.80
3466;DHT22;1747;48.884;9.160;2023-07-08T12:35:22;37.40;58.60
3466;DHT22;1747;48.884;9.160;2023-07-08T12:37:51;37.40;55.30
3466;DHT22;1747;48.884;9.160;2023-07-08T12:40:20;37.90;54.10
3466;DHT22;1747;48.884;9.160;2023-07-08T12:42:47;38.20;55.40
3466;DHT22;1747;48.884;9.160;2023-07-08T12:45:18;38.50;53.80
3466;DHT22;1747;48.884;9.160;2023-07-08T12:47:45;38.60;52.70
3466;DHT22;1747;48.884;9.160;2023-07-08T12:50:13;37.70;53.30
3466;DHT22;1747;48.884;9.160;2023-07-08T12:52:43;38.10;55.60
3466;DHT22;1747;48.884;9.160;2023-07-08T12:55:11;38.60;52.40
3466;DHT22;1747;48.884;9.160;2023-07-08T12:57:39;39.00;54.00
3466;DHT22;1747;48.884;9.160;2023-07-08T13:00:12;39.40;53.20
3466;DHT22;1747;48.884;9.160;2023-07-08T13:02:45;39.20;51.60
3466;DHT22;1747;48.884;9.160;2023-07-08T13:05:13;39.50;51.20
3466;DHT22;1747;48.884;9.160;2023-07-08T13:07:42;39.30;51.00
3466;DHT22;1747;48.884;9.160;2023-07-08T13:10:17;39.80;50.90
3466;DHT22;1747;48.884;9.160;2023-07-08T13:12:46;40.30;51.00
3466;DHT22;1747;48.884;9.160;2023-07-08T13:15:19;40.70;49.20
3466;DHT22;1747;48.884;9.160;2023-07-08T13:17:48;41.10;48.80
3466;DHT22;1747;48.884;9.160;2023-07-08T13:20:16;41.50;49.90
3466;DHT22;1747;48.884;9.160;2023-07-08T13:22:50;41.90;48.00
3466;DHT22;1747;48.884;9.160;2023-07-08T13:25:19;42.00;46.80
3466;DHT22;1747;48.884;9.160;2023-07-08T13:27:55;42.00;46.40
3466;DHT22;1747;48.884;9.160;2023-07-08T13:30:25;41.90;45.50
3466;DHT22;1747;48.884;9.160;2023-07-08T13:32:54;41.80;46.30
3466;DHT22;1747;48.884;9.160;2023-07-08T13:35:23;42.20;46.10
3466;DHT22;1747;48.884;9.160;2023-07-08T13:37:50;42.00;45.70
3466;DHT22;1747;48.884;9.160;2023-07-08T13:40:17;42.00;46.30
3466;DHT22;1747;48.884;9.160;2023-07-08T13:42:48;42.20;46.10
3466;DHT22;1747;48.884;9.160;2023-07-08T13:45:20;42.50;44.50
3466;DHT22;1747;48.884;9.160;2023-07-08T13:47:59;42.60;44.80
3466;DHT22;1747;48.884;9.160;2023-07-08T13:50:31;43.20;44.40
3466;DHT22;1747;48.884;9.160;2023-07-08T13:53:01;43.30;45.10
3466;DHT22;1747;48.884;9.160;2023-07-08T13:55:28;41.70;45.00
3466;DHT22;1747;48.884;9.160;2023-07-08T13:57:58;41.50;45.70
3466;DHT22;1747;48.884;9.160;2023-07-08T14:00:28;40.40;45.40
3466;DHT22;1747;48.884;9.160;2023-07-08T14:02:55;40.00;46.30
3466;DHT22;1747;48.884;9.160;2023-07-08T14:05:24;39.60;46.50
3466;DHT22;1747;48.884;9.160;2023-07-08T14:07:50;39.20;47.20
3466;DHT22;1747;48.884;9.160;2023-07-08T14:10:17;38.90;47.10
3466;DHT22;1747;48.884;9.160;2023-07-08T14:12:44;39.10;47.50
3466;DHT22;1747;48.884;9.160;2023-07-08T14:15:11;39.90;47.90
3466;DHT22;1747;48.884;9.160;2023-07-08T14:17:38;40.70;47.20
3466;DHT22;1747;48.884;9.160;2023-07-08T14:20:10;40.80;45.40
3466;DHT22;1747;48.884;9.160;2023-07-08T14:22:39;41.60;44.70
3466;DHT22;1747;48.884;9.160;2023-07-08T14:25:08;41.60;45.60
3466;DHT22;1747;48.884;9.160;2023-07-08T14:27:35;41.00;45.50
3466;DHT22;1747;48.884;9.160;2023-07-08T14:30:03;41.60;44.60
3466;DHT22;1747;48.884;9.160;2023-07-08T14:32:30;42.20;43.80
3466;DHT22;1747;48.884;9.160;2023-07-08T14:35:09;42.60;43.40
3466;DHT22;1747;48.884;9.160;2023-07-08T14:37:40;43.30;42.90
3466;DHT22;1747;48.884;9.160;2023-07-08T14:40:18;43.80;42.90
3466;DHT22;1747;48.884;9.160;2023-07-08T14:42:45;44.70;42.90
3466;DHT22;1747;48.884;9.160;2023-07-08T14:45:12;44.90;41.40
3466;DHT22;1747;48.884;9.160;2023-07-08T14:47:39;44.60;41.30
3466;DHT22;1747;48.884;9.160;2023-07-08T14:50:13;44.00;41.60
3466;DHT22;1747;48.884;9.160;2023-07-08T14:52:41;43.40;41.50
3466;DHT22;1747;48.884;9.160;2023-07-08T14:55:09;43.20;41.60
3466;DHT22;1747;48.884;9.160;2023-07-08T14:57:41;43.30;42.30
3466;DHT22;1747;48.884;9.160;2023-07-08T15:00:12;43.60;41.80
3466;DHT22;1747;48.884;9.160;2023-07-08T15:02:40;43.80;42.80
3466;DHT22;1747;48.884;9.160;2023-07-08T15:05:13;43.60;42.30
3466;DHT22;1747;48.884;9.160;2023-07-08T15:07:42;43.50;42.60
3466;DHT22;1747;48.884;9.160;2023-07-08T15:10:09;42.10;42.30
3466;DHT22;1747;48.884;9.160;2023-07-08T15:12:36;42.20;42.60
3466;DHT22;1747;48.884;9.160;2023-07-08T15:15:05;42.50;42.10
3466;DHT22;1747;48.884;9.160;2023-07-08T15:17:32;42.80;41.80
3466;DHT22;1747;48.884;9.160;2023-07-08T15:19:59;43.30;41.50
3466;DHT22;1747;48.884;9.160;2023-07-08T15:22:26;43.80;40.70
3466;DHT22;1747;48.884;9.160;2023-07-08T15:24:55;44.00;41.10
3466;DHT22;1747;48.884;9.160;2023-07-08T15:27:22;44.30;40.80
3466;DHT22;1747;48.884;9.160;2023-07-08T15:29:49;44.60;40.50
3466;DHT22;1747;48.884;9.160;2023-07-08T15:32:16;44.50;40.20
3466;DHT22;1747;48.884;9.160;2023-07-08T15:34:46;44.70;42.70
3466;DHT22;1747;48.884;9.160;2023-07-08T15:37:13;44.50;39.90
3466;DHT22;1747;48.884;9.160;2023-07-08T15:39:40;43.90;40.10
3466;DHT22;1747;48.884;9.160;2023-07-08T15:42:11;43.40;40.90
3466;DHT22;1747;48.884;9.160;2023-07-08T15:44:39;43.30;42.00
3466;DHT22;1747;48.884;9.160;2023-07-08T15:47:12;43.00;42.00
3466;DHT22;1747;48.884;9.160;2023-07-08T15:49:39;43.10;41.70
3466;DHT22;1747;48.884;9.160;2023-07-08T15:52:07;43.00;41.20
3466;DHT22;1747;48.884;9.160;2023-07-08T15:54:37;42.30;42.70
3466;DHT22;1747;48.884;9.160;2023-07-08T15:57:05;41.00;43.20
3466;DHT22;1747;48.884;9.160;2023-07-08T15:59:35;40.60;43.40
3466;DHT22;1747;48.884;9.160;2023-07-08T16:02:05;40.20;45.20
3466;DHT22;1747;48.884;9.160;2023-07-08T16:04:40;40.00;44.70
3466;DHT22;1747;48.884;9.160;2023-07-08T16:07:08;39.50;44.90
3466;DHT22;1747;48.884;9.160;2023-07-08T16:09:35;38.60;44.90
3466;DHT22;1747;48.884;9.160;2023-07-08T16:12:04;38.30;45.00
3466;DHT22;1747;48.884;9.160;2023-07-08T16:14:31;38.30;46.60
3466;DHT22;1747;48.884;9.160;2023-07-08T16:16:59;37.90;46.70